sensor_id;sensor_type;location;lat;lon;timestamp;temperature;humidity
51215;DHT22;63849;47.546;19.254;2024-02-21T00:00:45;7.40;81.40
51215;DHT22;63849;47.546;19.254;2024-02-21T00:03:11;7.30;81.40
51215;DHT22;63849;47.546;19.254;2024-02-21T00:05:37;7.30;81.50
51215;DHT22;63849;47.546;19.254;2024-02-21T00:08:03;7.30;81.50
51215;DHT22;63849;47.546;19.254;2024-02-21T00:10:28;7.30;81.60
51215;DHT22;63849;47.546;19.254;2024-02-21T00:12:54;7.30;81.40
51215;DHT22;63849;47.546;19.254;2024-02-21T00:15:20;7.40;81.40
51215;DHT22;63849;47.546;19.254;2024-02-21T00:17:46;7.40;81.40
51215;DHT22;63849;47.546;19.254;2024-02-21T00:20:12;7.40;81.60
51215;DHT22;63849;47.546;19.254;2024-02-21T00:22:38;7.30;81.80
51215;DHT22;63849;47.546;19.254;2024-02-21T00:25:04;7.40;81.70
51215;DHT22;63849;47.546;19.254;2024-02-21T00:27:30;7.40;81.60
51215;DHT22;63849;47.546;19.254;2024-02-21T00:29:56;7.40;81.40
51215;DHT22;63849;47.546;19.254;2024-02-21T00:32:22;7.40;81.50
51215;DHT22;63849;47.546;19.254;2024-02-21T00:34:47;7.30;81.40
51215;DHT22;63849;47.546;19.254;2024-02-21T00:37:13;7.40;81.40
51215;DHT22;63849;47.546;19.254;2024-02-21T00:39:39;7.40;81.50
51215;DHT22;63849;47.546;19.254;2024-02-21T00:42:04;7.40;81.60
51215;DHT22;63849;47.546;19.254;2024-02-21T00:44:30;7.40;81.40
51215;DHT22;63849;47.546;19.254;2024-02-21T00:46:56;7.40;81.30
51215;DHT22;63849;47.546;19.254;2024-02-21T00:49:21;7.40;81.30
51215;DHT22;63849;47.546;19.254;2024-02-21T00:51:47;7.50;81.20
51215;DHT22;63849;47.546;19.254;2024-02-21T00:54:13;7.40;81.10
51215;DHT22;63849;47.546;19.254;2024-02-21T00:56:39;7.40;81.00
51215;DHT22;63849;47.546;19.254;2024-02-21T00:59:04;7.50;80.90
51215;DHT22;63849;47.546;19.254;2024-02-21T01:01:30;7.50;80.90
51215;DHT22;63849;47.546;19.254;2024-02-21T01:03:55;7.50;81.00
51215;DHT22;63849;47.546;19.254;2024-02-21T01:06:21;7.50;80.80
51215;DHT22;63849;47.546;19.254;2024-02-21T01:08:47;7.50;80.50
51215;DHT22;63849;47.546;19.254;2024-02-21T01:11:14;7.50;80.40
51215;DHT22;63849;47.546;19.254;2024-02-21T01:13:39;7.50;79.90
51215;DHT22;63849;47.546;19.254;2024-02-21T01:16:06;7.50;79.60
51215;DHT22;63849;47.546;19.254;2024-02-21T01:18:33;7.50;79.60
51215;DHT22;63849;47.546;19.254;2024-02-21T01:20:58;7.50;79.30
51215;DHT22;63849;47.546;19.254;2024-02-21T01:23:24;7.50;79.50
51215;DHT22;63849;47.546;19.254;2024-02-21T01:25:50;7.50;79.80
51215;DHT22;63849;47.546;19.254;2024-02-21T01:28:16;7.50;79.80
51215;DHT22;63849;47.546;19.254;2024-02-21T01:30:42;7.50;79.90
51215;DHT22;63849;47.546;19.254;2024-02-21T01:33:08;7.40;79.80
51215;DHT22;63849;47.546;19.254;2024-02-21T01:35:34;7.50;79.60
51215;DHT22;63849;47.546;19.254;2024-02-21T01:38:00;7.50;79.60
51215;DHT22;63849;47.546;19.254;2024-02-21T01:40:25;7.40;79.40
51215;DHT22;63849;47.546;19.254;2024-02-21T01:42:55;7.40;79.30
51215;DHT22;63849;47.546;19.254;2024-02-21T01:45:21;7.40;79.20
51215;DHT22;63849;47.546;19.254;2024-02-21T01:47:47;7.40;79.20
51215;DHT22;63849;47.546;19.254;2024-02-21T01:50:15;7.30;79.00
51215;DHT22;63849;47.546;19.254;2024-02-21T01:52:43;7.30;79.00
51215;DHT22;63849;47.546;19.254;2024-02-21T01:55:11;7.40;78.80
51215;DHT22;63849;47.546;19.254;2024-02-21T01:57:39;7.30;78.60
51215;DHT22;63849;47.546;19.254;2024-02-21T02:00:06;7.40;78.70
51215;DHT22;63849;47.546;19.254;2024-02-21T02:02:33;7.30;78.30
51215;DHT22;63849;47.546;19.254;2024-02-21T02:04:59;7.30;77.90
51215;DHT22;63849;47.546;19.254;2024-02-21T02:07:26;7.30;77.80
51215;DHT22;63849;47.546;19.254;2024-02-21T02:09:51;7.30;77.60
51215;DHT22;63849;47.546;19.254;2024-02-21T02:12:17;7.30;77.70
51215;DHT22;63849;47.546;19.254;2024-02-21T02:14:43;7.30;77.60
51215;DHT22;63849;47.546;19.254;2024-02-21T02:17:08;7.30;77.40
51215;DHT22;63849;47.546;19.254;2024-02-21T02:19:35;7.30;77.40
51215;DHT22;63849;47.546;19.254;2024-02-21T02:22:09;7.30;77.40
51215;DHT22;63849;47.546;19.254;2024-02-21T02:24:35;7.20;77.50
51215;DHT22;63849;47.546;19.254;2024-02-21T02:27:01;7.10;77.40
51215;DHT22;63849;47.546;19.254;2024-02-21T02:29:26;7.10;77.40
51215;DHT22;63849;47.546;19.254;2024-02-21T02:31:52;7.10;77.60
51215;DHT22;63849;47.546;19.254;2024-02-21T02:34:18;7.10;77.60
51215;DHT22;63849;47.546;19.254;2024-02-21T02:36:43;7.10;77.60
51215;DHT22;63849;47.546;19.254;2024-02-21T02:39:09;7.10;77.50
51215;DHT22;63849;47.546;19.254;2024-02-21T02:41:36;7.10;77.60
51215;DHT22;63849;47.546;19.254;2024-02-21T02:44:01;7.00;77.50
51215;DHT22;63849;47.546;19.254;2024-02-21T02:46:27;7.00;77.30
51215;DHT22;63849;47.546;19.254;2024-02-21T02:48:53;7.00;77.50
51215;DHT22;63849;47.546;19.254;2024-02-21T02:51:18;7.00;77.40
51215;DHT22;63849;47.546;19.254;2024-02-21T02:53:44;7.00;77.40
51215;DHT22;63849;47.546;19.254;2024-02-21T02:56:14;7.00;77.30
51215;DHT22;63849;47.546;19.254;2024-02-21T02:58:42;7.00;77.30
51215;DHT22;63849;47.546;19.254;2024-02-21T03:01:07;6.90;77.20
51215;DHT22;63849;47.546;19.254;2024-02-21T03:03:33;6.90;77.20
51215;DHT22;63849;47.546;19.254;2024-02-21T03:05:58;6.90;77.20
51215;DHT22;63849;47.546;19.254;2024-02-21T03:08:24;6.90;77.20
51215;DHT22;63849;47.546;19.254;2024-02-21T03:10:50;6.90;77.00
51215;DHT22;63849;47.546;19.254;2024-02-21T03:13:15;7.00;76.90
51215;DHT22;63849;47.546;19.254;2024-02-21T03:15:41;6.90;76.80
51215;DHT22;63849;47.546;19.254;2024-02-21T03:18:07;7.00;76.90
51215;DHT22;63849;47.546;19.254;2024-02-21T03:20:33;6.90;76.90
51215;DHT22;63849;47.546;19.254;2024-02-21T03:22:58;6.90;76.90
51215;DHT22;63849;47.546;19.254;2024-02-21T03:25:24;6.90;77.00
51215;DHT22;63849;47.546;19.254;2024-02-21T03:27:49;6.80;77.00
51215;DHT22;63849;47.546;19.254;2024-02-21T03:30:15;6.80;76.70
51215;DHT22;63849;47.546;19.254;2024-02-21T03:32:41;6.80;76.70
51215;DHT22;63849;47.546;19.254;2024-02-21T03:35:07;6.80;76.60
51215;DHT22;63849;47.546;19.254;2024-02-21T03:37:32;6.80;76.30
51215;DHT22;63849;47.546;19.254;2024-02-21T03:39:58;6.80;76.00
51215;DHT22;63849;47.546;19.254;2024-02-21T03:42:23;6.80;76.10
51215;DHT22;63849;47.546;19.254;2024-02-21T03:44:49;6.80;76.00
51215;DHT22;63849;47.546;19.254;2024-02-21T03:47:15;6.80;76.10
51215;DHT22;63849;47.546;19.254;2024-02-21T03:49:41;6.80;76.00
51215;DHT22;63849;47.546;19.254;2024-02-21T03:52:06;6.80;75.90
51215;DHT22;63849;47.546;19.254;2024-02-21T03:54:33;6.70;75.80
51215;DHT22;63849;47.546;19.254;2024-02-21T03:56:59;6.70;75.70
51215;DHT22;63849;47.546;19.254;2024-02-21T03:59:24;6.60;75.80
51215;DHT22;63849;47.546;19.254;2024-02-21T04:01:53;6.60;75.90
51215;DHT22;63849;47.546;19.254;2024-02-21T04:04:19;6.60;75.90
51215;DHT22;63849;47.546;19.254;2024-02-21T04:06:51;6.50;76.10
51215;DHT22;63849;47.546;19.254;2024-02-21T04:09:18;6.50;76.30
51215;DHT22;63849;47.546;19.254;2024-02-21T04:11:43;6.50;76.20
51215;DHT22;63849;47.546;19.254;2024-02-21T04:14:09;6.40;76.40
51215;DHT22;63849;47.546;19.254;2024-02-21T04:16:36;6.40;76.40
51215;DHT22;63849;47.546;19.254;2024-02-21T04:19:02;6.40;76.60
51215;DHT22;63849;47.546;19.254;2024-02-21T04:21:28;6.30;76.80
51215;DHT22;63849;47.546;19.254;2024-02-21T04:23:53;6.30;77.00
51215;DHT22;63849;47.546;19.254;2024-02-21T04:26:19;6.20;77.00
51215;DHT22;63849;47.546;19.254;2024-02-21T04:28:45;6.20;77.10
51215;DHT22;63849;47.546;19.254;2024-02-21T04:31:11;6.20;77.10
51215;DHT22;63849;47.546;19.254;2024-02-21T04:33:37;6.20;77.10
51215;DHT22;63849;47.546;19.254;2024-02-21T04:36:02;6.20;77.20
51215;DHT22;63849;47.546;19.254;2024-02-21T04:38:28;6.10;77.40
51215;DHT22;63849;47.546;19.254;2024-02-21T04:40:55;6.10;77.30
51215;DHT22;63849;47.546;19.254;2024-02-21T04:43:24;6.10;77.30
51215;DHT22;63849;47.546;19.254;2024-02-21T04:45:50;6.10;77.20
51215;DHT22;63849;47.546;19.254;2024-02-21T04:48:16;6.10;77.30
51215;DHT22;63849;47.546;19.254;2024-02-21T04:50:41;6.10;77.00
51215;DHT22;63849;47.546;19.254;2024-02-21T04:53:07;6.10;76.80
51215;DHT22;63849;47.546;19.254;2024-02-21T04:55:33;6.10;76.90
51215;DHT22;63849;47.546;19.254;2024-02-21T04:57:59;6.00;76.90
51215;DHT22;63849;47.546;19.254;2024-02-21T05:00:26;6.00;76.90
51215;DHT22;63849;47.546;19.254;2024-02-21T05:02:51;6.00;76.80
51215;DHT22;63849;47.546;19.254;2024-02-21T05:05:17;5.90;76.90
51215;DHT22;63849;47.546;19.254;2024-02-21T05:07:43;5.90;76.90
51215;DHT22;63849;47.546;19.254;2024-02-21T05:10:08;5.90;77.50
51215;DHT22;63849;47.546;19.254;2024-02-21T05:12:35;5.80;78.70
51215;DHT22;63849;47.546;19.254;2024-02-21T05:15:01;5.80;78.90
51215;DHT22;63849;47.546;19.254;2024-02-21T05:17:26;5.80;78.90
51215;DHT22;63849;47.546;19.254;2024-02-21T05:19:52;5.70;79.20
51215;DHT22;63849;47.546;19.254;2024-02-21T05:22:18;5.80;78.70
51215;DHT22;63849;47.546;19.254;2024-02-21T05:24:43;5.60;78.80
51215;DHT22;63849;47.546;19.254;2024-02-21T05:27:09;5.60;79.00
51215;DHT22;63849;47.546;19.254;2024-02-21T05:29:34;5.60;79.00
51215;DHT22;63849;47.546;19.254;2024-02-21T05:32:00;5.50;79.00
51215;DHT22;63849;47.546;19.254;2024-02-21T05:34:26;5.40;79.00
51215;DHT22;63849;47.546;19.254;2024-02-21T05:36:52;5.30;79.20
51215;DHT22;63849;47.546;19.254;2024-02-21T05:39:18;5.30;79.40
51215;DHT22;63849;47.546;19.254;2024-02-21T05:41:44;5.40;79.30
51215;DHT22;63849;47.546;19.254;2024-02-21T05:44:10;5.40;79.00
51215;DHT22;63849;47.546;19.254;2024-02-21T05:46:36;5.40;78.80
51215;DHT22;63849;47.546;19.254;2024-02-21T05:49:01;5.40;78.60
51215;DHT22;63849;47.546;19.254;2024-02-21T05:51:27;5.40;78.80
51215;DHT22;63849;47.546;19.254;2024-02-21T05:53:53;5.30;79.10
51215;DHT22;63849;47.546;19.254;2024-02-21T05:56:18;5.30;79.40
51215;DHT22;63849;47.546;19.254;2024-02-21T05:58:44;5.30;79.50
51215;DHT22;63849;47.546;19.254;2024-02-21T06:01:11;5.10;79.80
51215;DHT22;63849;47.546;19.254;2024-02-21T06:03:37;5.20;80.10
51215;DHT22;63849;47.546;19.254;2024-02-21T06:06:03;5.10;80.20
51215;DHT22;63849;47.546;19.254;2024-02-21T06:08:30;5.20;80.40
51215;DHT22;63849;47.546;19.254;2024-02-21T06:10:56;5.20;80.10
51215;DHT22;63849;47.546;19.254;2024-02-21T06:13:23;5.30;80.10
51215;DHT22;63849;47.546;19.254;2024-02-21T06:15:49;5.30;80.20
51215;DHT22;63849;47.546;19.254;2024-02-21T06:18:19;5.30;80.10
51215;DHT22;63849;47.546;19.254;2024-02-21T06:20:45;5.40;80.00
51215;DHT22;63849;47.546;19.254;2024-02-21T06:23:12;5.40;80.00
51215;DHT22;63849;47.546;19.254;2024-02-21T06:25:38;5.50;80.10
51215;DHT22;63849;47.546;19.254;2024-02-21T06:28:04;5.60;80.10
51215;DHT22;63849;47.546;19.254;2024-02-21T06:30:30;5.60;80.10
51215;DHT22;63849;47.546;19.254;2024-02-21T06:32:56;5.70;80.00
51215;DHT22;63849;47.546;19.254;2024-02-21T06:35:22;5.80;80.10
51215;DHT22;63849;47.546;19.254;2024-02-21T06:37:50;5.80;79.90
51215;DHT22;63849;47.546;19.254;2024-02-21T06:40:21;5.80;79.90
51215;DHT22;63849;47.546;19.254;2024-02-21T06:42:47;5.90;79.90
51215;DHT22;63849;47.546;19.254;2024-02-21T06:45:14;5.90;79.80
51215;DHT22;63849;47.546;19.254;2024-02-21T06:47:40;6.10;79.60
51215;DHT22;63849;47.546;19.254;2024-02-21T06:50:06;6.10;79.40
51215;DHT22;63849;47.546;19.254;2024-02-21T06:52:32;6.10;79.50
51215;DHT22;63849;47.546;19.254;2024-02-21T06:54:58;6.20;79.40
51215;DHT22;63849;47.546;19.254;2024-02-21T06:57:23;6.20;79.40
51215;DHT22;63849;47.546;19.254;2024-02-21T06:59:49;6.30;79.30
51215;DHT22;63849;47.546;19.254;2024-02-21T07:02:15;6.40;79.10
51215;DHT22;63849;47.546;19.254;2024-02-21T07:04:40;6.30;79.20
51215;DHT22;63849;47.546;19.254;2024-02-21T07:07:06;6.40;79.20
51215;DHT22;63849;47.546;19.254;2024-02-21T07:09:32;6.50;79.00
51215;DHT22;63849;47.546;19.254;2024-02-21T07:11:58;6.50;78.90
51215;DHT22;63849;47.546;19.254;2024-02-21T07:14:24;6.50;78.90
51215;DHT22;63849;47.546;19.254;2024-02-21T07:16:50;6.70;78.50
51215;DHT22;63849;47.546;19.254;2024-02-21T07:19:16;6.80;78.20
51215;DHT22;63849;47.546;19.254;2024-02-21T07:21:42;6.80;77.70
51215;DHT22;63849;47.546;19.254;2024-02-21T07:24:08;6.90;77.70
51215;DHT22;63849;47.546;19.254;2024-02-21T07:26:34;7.00;77.00
51215;DHT22;63849;47.546;19.254;2024-02-21T07:29:00;7.10;76.60
51215;DHT22;63849;47.546;19.254;2024-02-21T07:31:26;7.20;76.40
51215;DHT22;63849;47.546;19.254;2024-02-21T07:33:51;7.20;75.80
51215;DHT22;63849;47.546;19.254;2024-02-21T07:36:29;7.30;76.20
51215;DHT22;63849;47.546;19.254;2024-02-21T07:38:55;7.30;76.50
51215;DHT22;63849;47.546;19.254;2024-02-21T07:41:21;7.40;75.80
51215;DHT22;63849;47.546;19.254;2024-02-21T07:43:47;7.40;75.40
51215;DHT22;63849;47.546;19.254;2024-02-21T07:46:14;7.50;75.30
51215;DHT22;63849;47.546;19.254;2024-02-21T07:48:40;7.50;75.30
51215;DHT22;63849;47.546;19.254;2024-02-21T07:51:05;7.50;75.10
51215;DHT22;63849;47.546;19.254;2024-02-21T07:53:31;7.50;75.10
51215;DHT22;63849;47.546;19.254;2024-02-21T07:55:57;7.50;74.80
51215;DHT22;63849;47.546;19.254;2024-02-21T07:58:22;7.60;74.60
51215;DHT22;63849;47.546;19.254;2024-02-21T08:00:48;7.60;75.30
51215;DHT22;63849;47.546;19.254;2024-02-21T08:03:14;7.70;75.40
51215;DHT22;63849;47.546;19.254;2024-02-21T08:05:41;7.70;74.80
51215;DHT22;63849;47.546;19.254;2024-02-21T08:08:06;7.80;74.20
51215;DHT22;63849;47.546;19.254;2024-02-21T08:10:34;7.80;73.30
51215;DHT22;63849;47.546;19.254;2024-02-21T08:12:59;7.90;73.20
51215;DHT22;63849;47.546;19.254;2024-02-21T08:15:25;7.90;73.70
51215;DHT22;63849;47.546;19.254;2024-02-21T08:17:55;7.90;72.70
51215;DHT22;63849;47.546;19.254;2024-02-21T08:20:24;8.00;72.40
51215;DHT22;63849;47.546;19.254;2024-02-21T08:22:50;8.00;72.70
51215;DHT22;63849;47.546;19.254;2024-02-21T08:25:16;8.10;72.90
51215;DHT22;63849;47.546;19.254;2024-02-21T08:27:41;8.10;72.40
51215;DHT22;63849;47.546;19.254;2024-02-21T08:30:07;8.10;72.20
51215;DHT22;63849;47.546;19.254;2024-02-21T08:32:33;8.20;72.00
51215;DHT22;63849;47.546;19.254;2024-02-21T08:35:01;8.30;71.40
51215;DHT22;63849;47.546;19.254;2024-02-21T08:37:29;8.30;71.00
51215;DHT22;63849;47.546;19.254;2024-02-21T08:39:55;8.30;71.00
51215;DHT22;63849;47.546;19.254;2024-02-21T08:42:21;8.30;71.10
51215;DHT22;63849;47.546;19.254;2024-02-21T08:44:46;8.40;70.50
51215;DHT22;63849;47.546;19.254;2024-02-21T08:47:12;8.40;70.90
51215;DHT22;63849;47.546;19.254;2024-02-21T08:49:38;8.50;70.30
51215;DHT22;63849;47.546;19.254;2024-02-21T08:52:04;8.50;69.70
51215;DHT22;63849;47.546;19.254;2024-02-21T08:54:31;8.50;70.10
51215;DHT22;63849;47.546;19.254;2024-02-21T08:56:58;8.60;69.80
51215;DHT22;63849;47.546;19.254;2024-02-21T08:59:23;8.60;69.60
51215;DHT22;63849;47.546;19.254;2024-02-21T09:01:50;8.60;69.30
51215;DHT22;63849;47.546;19.254;2024-02-21T09:04:17;8.60;70.20
51215;DHT22;63849;47.546;19.254;2024-02-21T09:06:43;8.70;70.80
51215;DHT22;63849;47.546;19.254;2024-02-21T09:09:09;8.80;69.30
51215;DHT22;63849;47.546;19.254;2024-02-21T09:11:35;8.80;70.30
51215;DHT22;63849;47.546;19.254;2024-02-21T09:14:01;8.90;69.80
51215;DHT22;63849;47.546;19.254;2024-02-21T09:16:32;9.00;69.60
51215;DHT22;63849;47.546;19.254;2024-02-21T09:18:58;9.00;69.30
51215;DHT22;63849;47.546;19.254;2024-02-21T09:21:24;8.90;68.80
51215;DHT22;63849;47.546;19.254;2024-02-21T09:23:49;9.10;68.80
51215;DHT22;63849;47.546;19.254;2024-02-21T09:26:15;9.10;67.80
51215;DHT22;63849;47.546;19.254;2024-02-21T09:28:43;9.10;68.60
51215;DHT22;63849;47.546;19.254;2024-02-21T09:31:09;9.10;69.30
51215;DHT22;63849;47.546;19.254;2024-02-21T09:33:35;9.20;69.20
51215;DHT22;63849;47.546;19.254;2024-02-21T09:36:01;9.30;68.20
51215;DHT22;63849;47.546;19.254;2024-02-21T09:38:27;9.20;68.80
51215;DHT22;63849;47.546;19.254;2024-02-21T09:41:04;9.20;69.30
51215;DHT22;63849;47.546;19.254;2024-02-21T09:43:34;9.30;69.70
51215;DHT22;63849;47.546;19.254;2024-02-21T09:46:00;9.30;69.90
51215;DHT22;63849;47.546;19.254;2024-02-21T09:51:19;9.70;70.40
51215;DHT22;63849;47.546;19.254;2024-02-21T09:53:47;9.80;68.70
51215;DHT22;63849;47.546;19.254;2024-02-21T09:56:14;9.90;68.50
51215;DHT22;63849;47.546;19.254;2024-02-21T09:58:40;10.00;67.20
51215;DHT22;63849;47.546;19.254;2024-02-21T10:01:06;10.00;67.30
51215;DHT22;63849;47.546;19.254;2024-02-21T10:03:33;10.00;66.80
51215;DHT22;63849;47.546;19.254;2024-02-21T10:05:59;10.00;66.60
51215;DHT22;63849;47.546;19.254;2024-02-21T10:08:26;10.10;66.00
51215;DHT22;63849;47.546;19.254;2024-02-21T10:10:52;10.10;66.90
51215;DHT22;63849;47.546;19.254;2024-02-21T10:13:29;10.10;66.40
51215;DHT22;63849;47.546;19.254;2024-02-21T10:16:05;10.10;66.70
51215;DHT22;63849;47.546;19.254;2024-02-21T10:18:32;9.90;66.80
51215;DHT22;63849;47.546;19.254;2024-02-21T10:21:05;9.90;66.60
51215;DHT22;63849;47.546;19.254;2024-02-21T10:23:45;9.80;67.40
51215;DHT22;63849;47.546;19.254;2024-02-21T10:26:11;9.80;67.30
51215;DHT22;63849;47.546;19.254;2024-02-21T10:28:37;9.70;67.40
51215;DHT22;63849;47.546;19.254;2024-02-21T10:31:27;9.70;67.20
51215;DHT22;63849;47.546;19.254;2024-02-21T10:33:57;9.70;67.50
51215;DHT22;63849;47.546;19.254;2024-02-21T10:36:24;9.80;68.10
51215;DHT22;63849;47.546;19.254;2024-02-21T10:38:52;9.90;68.40
51215;DHT22;63849;47.546;19.254;2024-02-21T10:41:20;10.10;68.50
51215;DHT22;63849;47.546;19.254;2024-02-21T10:43:51;10.20;65.40
51215;DHT22;63849;47.546;19.254;2024-02-21T10:46:22;10.20;65.20
51215;DHT22;63849;47.546;19.254;2024-02-21T10:49:13;10.20;65.60
51215;DHT22;63849;47.546;19.254;2024-02-21T10:51:43;10.20;63.80
51215;DHT22;63849;47.546;19.254;2024-02-21T10:54:35;10.30;63.80
51215;DHT22;63849;47.546;19.254;2024-02-21T10:57:19;10.30;64.40
51215;DHT22;63849;47.546;19.254;2024-02-21T10:59:48;10.50;64.80
51215;DHT22;63849;47.546;19.254;2024-02-21T11:02:14;10.60;64.90
51215;DHT22;63849;47.546;19.254;2024-02-21T11:04:41;10.70;64.20
51215;DHT22;63849;47.546;19.254;2024-02-21T11:07:07;10.80;63.40
51215;DHT22;63849;47.546;19.254;2024-02-21T11:09:33;10.80;64.00
51215;DHT22;63849;47.546;19.254;2024-02-21T11:12:04;11.00;64.60
51215;DHT22;63849;47.546;19.254;2024-02-21T11:14:30;11.10;62.00
51215;DHT22;63849;47.546;19.254;2024-02-21T11:17:17;11.00;61.50
51215;DHT22;63849;47.546;19.254;2024-02-21T11:19:44;10.90;61.90
51215;DHT22;63849;47.546;19.254;2024-02-21T11:22:20;10.90;62.50
51215;DHT22;63849;47.546;19.254;2024-02-21T11:24:50;10.90;63.10
51215;DHT22;63849;47.546;19.254;2024-02-21T11:27:18;11.00;63.90
51215;DHT22;63849;47.546;19.254;2024-02-21T11:29:47;11.00;63.60
51215;DHT22;63849;47.546;19.254;2024-02-21T11:32:17;11.00;63.30
51215;DHT22;63849;47.546;19.254;2024-02-21T11:35:01;10.90;62.60
51215;DHT22;63849;47.546;19.254;2024-02-21T11:37:36;10.90;64.20
51215;DHT22;63849;47.546;19.254;2024-02-21T11:40:05;11.00;63.20
51215;DHT22;63849;47.546;19.254;2024-02-21T11:42:35;10.90;63.20
51215;DHT22;63849;47.546;19.254;2024-02-21T11:45:01;10.90;63.10
51215;DHT22;63849;47.546;19.254;2024-02-21T11:47:28;10.80;63.30
51215;DHT22;63849;47.546;19.254;2024-02-21T11:49:54;10.90;63.60
51215;DHT22;63849;47.546;19.254;2024-02-21T11:52:24;10.90;63.60
51215;DHT22;63849;47.546;19.254;2024-02-21T11:54:53;11.00;63.80
51215;DHT22;63849;47.546;19.254;2024-02-21T11:57:21;10.80;63.80
51215;DHT22;63849;47.546;19.254;2024-02-21T11:59:46;10.90;63.40
51215;DHT22;63849;47.546;19.254;2024-02-21T12:02:14;10.80;62.60
51215;DHT22;63849;47.546;19.254;2024-02-21T12:04:40;10.90;63.50
51215;DHT22;63849;47.546;19.254;2024-02-21T12:07:05;10.80;62.90
51215;DHT22;63849;47.546;19.254;2024-02-21T12:09:31;10.80;63.20
51215;DHT22;63849;47.546;19.254;2024-02-21T12:12:02;10.80;63.40
51215;DHT22;63849;47.546;19.254;2024-02-21T12:14:33;10.80;63.60
51215;DHT22;63849;47.546;19.254;2024-02-21T12:17:00;10.90;63.40
51215;DHT22;63849;47.546;19.254;2024-02-21T12:19:29;10.90;62.80
51215;DHT22;63849;47.546;19.254;2024-02-21T12:21:55;10.80;62.80
51215;DHT22;63849;47.546;19.254;2024-02-21T12:24:28;10.80;61.80
51215;DHT22;63849;47.546;19.254;2024-02-21T12:26:55;10.80;62.50
51215;DHT22;63849;47.546;19.254;2024-02-21T12:29:22;10.70;61.90
51215;DHT22;63849;47.546;19.254;2024-02-21T12:31:49;10.70;62.40
51215;DHT22;63849;47.546;19.254;2024-02-21T12:34:15;10.70;62.60
51215;DHT22;63849;47.546;19.254;2024-02-21T12:36:42;10.60;61.90
51215;DHT22;63849;47.546;19.254;2024-02-21T12:39:09;10.60;62.30
51215;DHT22;63849;47.546;19.254;2024-02-21T12:41:35;10.50;62.20
51215;DHT22;63849;47.546;19.254;2024-02-21T12:44:04;10.50;62.60
51215;DHT22;63849;47.546;19.254;2024-02-21T12:46:35;10.40;62.70
51215;DHT22;63849;47.546;19.254;2024-02-21T12:49:01;10.50;62.30
51215;DHT22;63849;47.546;19.254;2024-02-21T12:51:27;10.40;62.30
51215;DHT22;63849;47.546;19.254;2024-02-21T12:53:53;10.50;60.90
51215;DHT22;63849;47.546;19.254;2024-02-21T12:56:19;10.60;61.80
51215;DHT22;63849;47.546;19.254;2024-02-21T12:58:44;10.70;62.10
51215;DHT22;63849;47.546;19.254;2024-02-21T13:01:10;10.70;61.80
51215;DHT22;63849;47.546;19.254;2024-02-21T13:03:36;10.90;60.80
51215;DHT22;63849;47.546;19.254;2024-02-21T13:06:03;10.90;61.50
51215;DHT22;63849;47.546;19.254;2024-02-21T13:08:29;10.90;62.10
51215;DHT22;63849;47.546;19.254;2024-02-21T13:10:55;10.80;62.00
51215;DHT22;63849;47.546;19.254;2024-02-21T13:13:20;10.90;61.20
51215;DHT22;63849;47.546;19.254;2024-02-21T13:15:46;10.90;61.30
51215;DHT22;63849;47.546;19.254;2024-02-21T13:18:12;11.00;61.10
51215;DHT22;63849;47.546;19.254;2024-02-21T13:20:38;11.10;61.00
51215;DHT22;63849;47.546;19.254;2024-02-21T13:23:03;11.30;60.40
51215;DHT22;63849;47.546;19.254;2024-02-21T13:25:29;11.20;60.20
51215;DHT22;63849;47.546;19.254;2024-02-21T13:27:55;11.10;60.10
51215;DHT22;63849;47.546;19.254;2024-02-21T13:30:22;11.10;60.10
51215;DHT22;63849;47.546;19.254;2024-02-21T13:32:47;11.10;59.80
51215;DHT22;63849;47.546;19.254;2024-02-21T13:35:14;11.10;60.30
51215;DHT22;63849;47.546;19.254;2024-02-21T13:37:41;11.10;60.40
51215;DHT22;63849;47.546;19.254;2024-02-21T13:40:07;11.10;60.70
51215;DHT22;63849;47.546;19.254;2024-02-21T13:42:39;11.00;59.90
51215;DHT22;63849;47.546;19.254;2024-02-21T13:45:06;10.90;60.70
51215;DHT22;63849;47.546;19.254;2024-02-21T13:47:35;10.80;61.20
51215;DHT22;63849;47.546;19.254;2024-02-21T13:50:05;10.80;60.90
51215;DHT22;63849;47.546;19.254;2024-02-21T13:52:37;10.80;60.50
51215;DHT22;63849;47.546;19.254;2024-02-21T13:55:03;10.90;60.20
51215;DHT22;63849;47.546;19.254;2024-02-21T13:57:29;10.80;60.30
51215;DHT22;63849;47.546;19.254;2024-02-21T13:59:54;10.80;60.10
51215;DHT22;63849;47.546;19.254;2024-02-21T14:02:20;10.80;60.60
51215;DHT22;63849;47.546;19.254;2024-02-21T14:04:46;10.60;61.00
51215;DHT22;63849;47.546;19.254;2024-02-21T14:07:12;10.50;61.60
51215;DHT22;63849;47.546;19.254;2024-02-21T14:09:38;10.50;61.90
51215;DHT22;63849;47.546;19.254;2024-02-21T14:12:04;10.40;62.10
51215;DHT22;63849;47.546;19.254;2024-02-21T14:14:37;10.30;62.40
51215;DHT22;63849;47.546;19.254;2024-02-21T14:17:03;10.30;62.00
51215;DHT22;63849;47.546;19.254;2024-02-21T14:19:30;10.30;62.70
51215;DHT22;63849;47.546;19.254;2024-02-21T14:21:55;10.30;62.40
51215;DHT22;63849;47.546;19.254;2024-02-21T14:24:22;10.20;62.30
51215;DHT22;63849;47.546;19.254;2024-02-21T14:26:48;10.30;62.30
51215;DHT22;63849;47.546;19.254;2024-02-21T14:29:14;10.20;62.10
51215;DHT22;63849;47.546;19.254;2024-02-21T14:31:40;10.20;61.00
51215;DHT22;63849;47.546;19.254;2024-02-21T14:34:05;10.20;60.60
51215;DHT22;63849;47.546;19.254;2024-02-21T14:36:33;10.10;60.30
51215;DHT22;63849;47.546;19.254;2024-02-21T14:38:59;10.10;59.60
51215;DHT22;63849;47.546;19.254;2024-02-21T14:41:24;10.10;59.70
51215;DHT22;63849;47.546;19.254;2024-02-21T14:43:50;10.10;59.60
51215;DHT22;63849;47.546;19.254;2024-02-21T14:46:17;10.10;59.60
51215;DHT22;63849;47.546;19.254;2024-02-21T14:48:43;10.10;59.80
51215;DHT22;63849;47.546;19.254;2024-02-21T14:51:09;10.10;60.20
51215;DHT22;63849;47.546;19.254;2024-02-21T14:53:34;10.10;60.30
51215;DHT22;63849;47.546;19.254;2024-02-21T14:56:00;10.10;60.40
51215;DHT22;63849;47.546;19.254;2024-02-21T14:58:25;10.10;61.10
51215;DHT22;63849;47.546;19.254;2024-02-21T15:00:52;10.20;60.70
51215;DHT22;63849;47.546;19.254;2024-02-21T15:03:19;10.20;60.80
51215;DHT22;63849;47.546;19.254;2024-02-21T15:05:46;10.20;60.30
51215;DHT22;63849;47.546;19.254;2024-02-21T15:08:12;10.20;60.70
51215;DHT22;63849;47.546;19.254;2024-02-21T15:10:39;10.10;60.70
51215;DHT22;63849;47.546;19.254;2024-02-21T15:13:05;10.20;60.70
51215;DHT22;63849;47.546;19.254;2024-02-21T15:15:31;10.10;60.20
51215;DHT22;63849;47.546;19.254;2024-02-21T15:17:56;10.10;60.30
51215;DHT22;63849;47.546;19.254;2024-02-21T15:20:23;10.20;60.30
51215;DHT22;63849;47.546;19.254;2024-02-21T15:22:49;10.10;60.60
51215;DHT22;63849;47.546;19.254;2024-02-21T15:25:14;10.10;60.60